createdAt,value
2022-09-02T00:01:28.728Z,23.00
2022-09-02T00:04:01.266Z,23.00
2022-09-02T00:06:30.357Z,23.00
2022-09-02T00:08:58.275Z,23.00
2022-09-02T00:11:27.833Z,23.00
2022-09-02T00:13:57.288Z,23.00
2022-09-02T00:16:25.302Z,23.00
2022-09-02T00:18:53.799Z,23.00
2022-09-02T00:21:21.964Z,23.00
2022-09-02T00:23:49.374Z,23.00
2022-09-02T00:26:18.004Z,23.00
2022-09-02T00:28:51.174Z,23.00
2022-09-02T00:31:29.170Z,23.00
2022-09-02T00:33:56.769Z,22.90
2022-09-02T00:36:23.747Z,22.90
2022-09-02T00:38:51.003Z,22.90
2022-09-02T00:41:21.876Z,22.90
2022-09-02T00:43:56.166Z,22.90
2022-09-02T00:46:27.030Z,22.90
2022-09-02T00:49:25.221Z,22.90
2022-09-02T00:51:55.394Z,22.90
2022-09-02T00:54:24.301Z,22.90
2022-09-02T00:56:56.297Z,22.90
2022-09-02T00:59:52.188Z,22.90
2022-09-02T01:02:24.215Z,22.90
2022-09-02T01:04:56.892Z,22.90
2022-09-02T01:07:29.619Z,22.90
2022-09-02T01:09:59.437Z,22.90
2022-09-02T01:12:27.462Z,22.90
2022-09-02T01:14:54.559Z,22.90
2022-09-02T01:17:21.517Z,22.90
2022-09-02T01:19:55.105Z,22.90
2022-09-02T01:22:26.573Z,22.80
2022-09-02T01:24:55.243Z,22.80
2022-09-02T01:27:23.696Z,22.80
2022-09-02T01:29:55.888Z,22.80
2022-09-02T01:32:24.198Z,22.80
2022-09-02T01:34:52.654Z,22.80
2022-09-02T01:37:20.225Z,22.80
2022-09-02T01:39:47.302Z,22.80
2022-09-02T01:42:15.786Z,22.80
2022-09-02T01:44:46.422Z,22.80
2022-09-02T01:47:22.830Z,22.80
2022-09-02T01:49:50.616Z,22.80
2022-09-02T01:52:18.390Z,22.80
2022-09-02T01:54:45.250Z,22.80
2022-09-02T01:57:12.402Z,22.80
2022-09-02T01:59:39.917Z,22.80
2022-09-02T02:02:07.118Z,22.80
2022-09-02T02:04:34.302Z,22.80
2022-09-02T02:07:02.364Z,22.80
2022-09-02T02:09:29.235Z,22.80
2022-09-02T02:11:57.310Z,22.70
2022-09-02T02:14:24.136Z,22.70
2022-09-02T02:16:51.388Z,22.70
2022-09-02T02:19:18.426Z,22.80
2022-09-02T02:21:45.469Z,22.70
2022-09-02T02:24:15.303Z,22.70
2022-09-02T02:26:42.713Z,22.70
2022-09-02T02:29:10.137Z,22.70
2022-09-02T02:31:37.446Z,22.70
2022-09-02T02:34:05.446Z,22.70
2022-09-02T02:36:32.680Z,22.70
2022-09-02T02:39:01.565Z,22.70
2022-09-02T02:41:30.685Z,22.70
2022-09-02T02:43:57.645Z,22.70
2022-09-02T02:46:24.616Z,22.70
2022-09-02T02:48:51.590Z,22.70
2022-09-02T02:51:18.470Z,22.70
2022-09-02T02:53:45.305Z,22.70
2022-09-02T02:56:12.223Z,22.70
2022-09-02T02:58:39.067Z,22.70
2022-09-02T03:01:06.143Z,22.70
2022-09-02T03:03:33.283Z,22.70
2022-09-02T03:06:00.515Z,22.70
2022-09-02T03:08:27.522Z,22.70
2022-09-02T03:10:56.410Z,22.70
2022-09-02T03:13:24.531Z,22.70
2022-09-02T03:15:52.297Z,22.70
2022-09-02T03:18:20.019Z,22.70
2022-09-02T03:20:46.970Z,22.60
2022-09-02T03:23:14.707Z,22.60
2022-09-02T03:25:46.359Z,22.60
2022-09-02T03:28:14.023Z,22.60
2022-09-02T03:30:45.491Z,22.60
2022-09-02T03:33:12.799Z,22.60
2022-09-02T03:35:43.485Z,22.60
2022-09-02T03:38:12.511Z,22.60
2022-09-02T03:40:40.292Z,22.60
2022-09-02T03:43:07.282Z,22.60
2022-09-02T03:45:34.250Z,22.60
2022-09-02T03:48:01.202Z,22.60
2022-09-02T03:50:31.407Z,22.60
2022-09-02T03:52:59.799Z,22.60
2022-09-02T03:55:27.659Z,22.60
2022-09-02T03:57:54.666Z,22.60
2022-09-02T04:00:25.211Z,22.50
2022-09-02T04:02:54.505Z,22.50
2022-09-02T04:05:22.559Z,22.50
2022-09-02T04:07:52.659Z,22.50
2022-09-02T04:10:22.036Z,22.50
2022-09-02T04:12:50.229Z,22.50
2022-09-02T04:15:17.295Z,22.50
2022-09-02T04:21:34.822Z,22.50
2022-09-02T04:24:01.899Z,22.50
2022-09-02T04:26:29.687Z,22.50
2022-09-02T04:28:56.935Z,22.50
2022-09-02T04:31:29.911Z,22.40
2022-09-02T04:33:57.795Z,22.40
2022-09-02T04:36:26.437Z,22.40
2022-09-02T04:38:58.217Z,22.40
2022-09-02T04:41:28.813Z,22.40
2022-09-02T04:43:57.628Z,22.40
2022-09-02T04:46:34.258Z,22.30
2022-09-02T04:49:04.962Z,22.30
2022-09-02T04:51:32.774Z,22.30
2022-09-02T04:54:01.220Z,22.30
2022-09-02T04:56:31.344Z,22.40
2022-09-02T04:58:58.624Z,22.40
2022-09-02T05:01:29.138Z,22.40
2022-09-02T05:03:56.109Z,22.40
2022-09-02T05:06:28.887Z,22.40
2022-09-02T05:08:58.208Z,22.40
2022-09-02T05:11:29.724Z,22.40
2022-09-02T05:14:02.957Z,22.40
2022-09-02T05:16:33.994Z,22.40
2022-09-02T05:19:06.324Z,22.40
2022-09-02T05:21:33.506Z,22.40
2022-09-02T05:24:01.538Z,22.40
2022-09-02T05:26:28.412Z,22.40
2022-09-02T05:28:57.485Z,22.40
2022-09-02T05:31:24.513Z,22.40
2022-09-02T05:33:51.488Z,22.40
2022-09-02T05:36:21.465Z,22.40
2022-09-02T05:38:49.183Z,22.40
2022-09-02T05:41:21.915Z,22.40
2022-09-02T05:43:49.505Z,22.40
2022-09-02T05:46:19.490Z,22.40
2022-09-02T05:49:06.047Z,22.40
2022-09-02T05:51:55.088Z,22.40
2022-09-02T05:54:28.927Z,22.40
2022-09-02T05:57:06.451Z,22.40
2022-09-02T05:59:36.925Z,22.40
2022-09-02T06:02:04.001Z,22.40
2022-09-02T06:04:32.143Z,22.40
2022-09-02T06:06:59.174Z,22.40
2022-09-02T06:09:27.204Z,22.40
2022-09-02T06:11:54.171Z,22.40
2022-09-02T06:14:25.230Z,22.40
2022-09-02T06:16:54.958Z,22.40
2022-09-02T06:19:25.324Z,22.40
2022-09-02T06:21:53.487Z,22.40
2022-09-02T06:24:21.241Z,22.40
2022-09-02T06:26:48.939Z,22.40
2022-09-02T06:29:16.167Z,22.40
2022-09-02T06:31:45.102Z,22.40
2022-09-02T06:34:15.017Z,22.40
2022-09-02T06:36:44.182Z,22.40
2022-09-02T06:39:14.333Z,22.40
2022-09-02T06:41:43.648Z,22.40
2022-09-02T06:44:12.015Z,22.40
2022-09-02T06:46:47.461Z,22.40
2022-09-02T06:49:16.506Z,22.40
2022-09-02T06:51:46.572Z,22.40
2022-09-02T06:54:20.676Z,22.50
2022-09-02T06:56:49.750Z,22.40
2022-09-02T06:59:19.255Z,22.40
2022-09-02T07:01:47.120Z,22.40
2022-09-02T07:04:34.175Z,22.40
2022-09-02T07:07:01.611Z,22.50
2022-09-02T07:09:31.476Z,22.50
2022-09-02T07:12:04.324Z,22.50
2022-09-02T07:14:37.565Z,22.50
2022-09-02T07:17:04.983Z,22.50
2022-09-02T07:19:32.056Z,22.50
2022-09-02T07:21:59.043Z,22.50
2022-09-02T07:24:26.205Z,22.50
2022-09-02T07:26:55.373Z,22.50
2022-09-02T07:29:23.141Z,22.50
2022-09-02T07:31:50.197Z,22.50
2022-09-02T07:34:18.739Z,22.50
2022-09-02T07:36:46.280Z,22.50
2022-09-02T07:39:14.694Z,22.50
2022-09-02T07:41:44.028Z,22.50
2022-09-02T07:44:11.376Z,22.60
2022-09-02T07:46:38.712Z,22.60
2022-09-02T07:49:09.542Z,22.60
2022-09-02T07:51:41.418Z,22.60
2022-09-02T07:54:10.204Z,22.60
2022-09-02T07:56:37.359Z,22.60
2022-09-02T07:59:04.414Z,22.60
2022-09-02T08:01:31.885Z,22.60
2022-09-02T08:04:00.462Z,22.60
2022-09-02T08:06:34.956Z,22.60
2022-09-02T08:09:05.125Z,22.70
2022-09-02T08:11:35.071Z,22.70
2022-09-02T08:14:03.194Z,22.70
2022-09-02T08:16:30.718Z,22.70
2022-09-02T08:18:58.472Z,22.80
2022-09-02T08:21:29.438Z,22.80
2022-09-02T08:23:57.487Z,22.80
2022-09-02T08:26:26.693Z,22.80
2022-09-02T08:28:53.901Z,22.90
2022-09-02T08:31:24.303Z,22.90
2022-09-02T08:33:52.704Z,22.90
2022-09-02T08:36:21.183Z,22.90
2022-09-02T08:38:48.334Z,22.90
2022-09-02T08:41:25.860Z,22.90
2022-09-02T08:43:57.228Z,23.00
2022-09-02T08:46:26.645Z,23.00
2022-09-02T08:49:03.153Z,23.00
2022-09-02T08:51:53.351Z,23.10
2022-09-02T08:54:36.106Z,23.10
2022-09-02T08:57:03.542Z,23.10
2022-09-02T08:59:31.675Z,23.10
2022-09-02T09:02:24.515Z,23.10
2022-09-02T09:05:00.541Z,23.20
2022-09-02T09:07:27.564Z,23.20
2022-09-02T09:10:09.479Z,23.20
2022-09-02T09:13:11.857Z,23.20
2022-09-02T09:15:54.407Z,23.20
2022-09-02T09:18:38.716Z,23.30
2022-09-02T09:21:07.647Z,23.30
2022-09-02T09:23:41.645Z,23.30
2022-09-02T09:26:12.857Z,23.30
2022-09-02T09:28:48.272Z,23.30
2022-09-02T09:31:18.759Z,23.30
2022-09-02T09:34:15.701Z,23.30
2022-09-02T09:36:48.113Z,23.30
2022-09-02T09:39:30.229Z,23.30
2022-09-02T09:42:00.795Z,23.30
2022-09-02T09:44:30.960Z,23.30
2022-09-02T09:47:17.909Z,23.30
2022-09-02T09:50:24.848Z,23.30
2022-09-02T09:52:53.594Z,23.30
2022-09-02T09:55:24.959Z,23.30
2022-09-02T09:57:54.442Z,23.30
2022-09-02T10:00:32.679Z,23.30
2022-09-02T10:03:02.682Z,23.30
2022-09-02T10:05:40.394Z,23.30
2022-09-02T10:08:22.193Z,23.40
2022-09-02T10:11:01.581Z,23.40
2022-09-02T10:13:35.148Z,23.40
2022-09-02T10:16:11.799Z,23.40
2022-09-02T10:18:58.384Z,23.40
2022-09-02T10:21:38.394Z,23.40
2022-09-02T10:24:24.983Z,23.40
2022-09-02T10:26:58.760Z,23.40
2022-09-02T10:29:51.904Z,23.40
2022-09-02T10:32:45.058Z,23.40
2022-09-02T10:35:18.511Z,23.40
2022-09-02T10:37:45.382Z,23.40
2022-09-02T10:40:19.578Z,23.40
2022-09-02T10:43:09.636Z,23.40
2022-09-02T10:45:51.662Z,23.40
2022-09-02T10:49:06.296Z,23.50
2022-09-02T10:51:41.770Z,23.50
2022-09-02T10:54:44.532Z,23.50
2022-09-02T10:57:14.243Z,23.50
2022-09-02T11:00:06.480Z,23.50
2022-09-02T11:02:54.347Z,23.60
2022-09-02T11:05:28.399Z,23.60
2022-09-02T11:08:06.884Z,23.60
2022-09-02T11:11:01.201Z,23.60
2022-09-02T11:13:38.267Z,23.60
2022-09-02T11:16:20.833Z,23.60
2022-09-02T11:18:58.842Z,23.70
2022-09-02T11:21:34.628Z,23.70
2022-09-02T11:24:39.134Z,23.70
2022-09-02T11:27:41.517Z,23.80
2022-09-02T11:30:21.148Z,23.80
2022-09-02T11:43:11.175Z,23.80
2022-09-02T11:45:47.101Z,23.80
2022-09-02T11:48:23.016Z,23.80
2022-09-02T11:51:16.621Z,23.80
2022-09-02T11:53:45.989Z,23.80
2022-09-02T11:56:16.108Z,23.70
2022-09-02T11:58:48.078Z,23.70
2022-09-02T12:01:33.370Z,23.70
2022-09-02T12:07:12.996Z,23.70
2022-09-02T12:12:41.540Z,23.60
2022-09-02T12:15:17.672Z,23.70
2022-09-02T12:18:04.465Z,23.70
2022-09-02T12:20:41.607Z,23.70
2022-09-02T12:23:10.406Z,23.70
2022-09-02T12:25:43.202Z,23.70
2022-09-02T12:28:19.106Z,23.70
2022-09-02T12:31:10.425Z,23.70
2022-09-02T12:33:49.321Z,23.70
2022-09-02T12:36:44.642Z,23.70
2022-09-02T12:39:30.640Z,23.70
2022-09-02T12:42:12.879Z,23.70
2022-09-02T12:45:03.054Z,23.70
2022-09-02T12:48:01.640Z,23.70
2022-09-02T12:50:51.919Z,23.70
2022-09-02T12:53:35.787Z,23.70
2022-09-02T12:56:24.904Z,23.70
2022-09-02T12:59:00.176Z,23.70
2022-09-02T13:01:59.405Z,23.70
2022-09-02T13:04:52.981Z,23.70
2022-09-02T13:07:34.609Z,23.80
2022-09-02T13:10:07.361Z,23.80
2022-09-02T13:12:34.257Z,23.80
2022-09-02T13:15:04.177Z,23.80
2022-09-02T13:17:36.504Z,23.80
2022-09-02T13:20:30.915Z,23.80
2022-09-02T13:23:51.825Z,23.80
2022-09-02T13:26:49.471Z,23.80
2022-09-02T13:29:32.133Z,23.80
2022-09-02T13:32:22.178Z,23.80
2022-09-02T13:34:55.127Z,23.80
2022-09-02T13:37:36.730Z,23.90
2022-09-02T13:40:19.480Z,23.90
2022-09-02T13:43:01.561Z,23.90
2022-09-02T13:45:31.959Z,23.90
2022-09-02T13:48:01.804Z,23.90
2022-09-02T13:50:30.943Z,23.90
2022-09-02T13:53:53.952Z,23.90
2022-09-02T13:55:55.251Z,24.00
2022-09-02T13:58:31.198Z,24.00
2022-09-02T14:01:16.730Z,24.00
2022-09-02T14:03:49.899Z,24.00
2022-09-02T14:06:19.610Z,24.00
2022-09-02T14:08:47.448Z,24.00
2022-09-02T14:11:17.163Z,24.00
2022-09-02T14:13:48.720Z,24.00
2022-09-02T14:16:35.744Z,24.00
2022-09-02T14:19:14.475Z,24.00
2022-09-02T14:21:56.372Z,24.00
2022-09-02T14:24:37.026Z,24.00
2022-09-02T14:27:11.939Z,24.00
2022-09-02T14:29:44.888Z,24.00
2022-09-02T14:32:28.995Z,24.00
2022-09-02T14:35:21.313Z,24.10
2022-09-02T14:37:57.758Z,24.10
2022-09-02T14:40:40.734Z,24.10
2022-09-02T14:43:15.967Z,24.10
2022-09-02T14:45:49.349Z,24.10
2022-09-02T14:48:26.164Z,24.10
2022-09-02T14:51:05.568Z,24.10
2022-09-02T14:53:34.005Z,24.10
2022-09-02T14:56:01.133Z,24.10
2022-09-02T14:58:29.158Z,24.10
2022-09-02T15:01:00.707Z,24.10
2022-09-02T15:03:29.801Z,24.10
2022-09-02T15:05:57.441Z,24.10
2022-09-02T15:08:24.589Z,24.10
2022-09-02T15:10:52.839Z,24.10
2022-09-02T15:13:28.430Z,24.00
2022-09-02T15:15:55.895Z,24.10
2022-09-02T15:18:24.194Z,24.10
2022-09-02T15:20:51.677Z,24.10
2022-09-02T15:23:18.861Z,24.10
2022-09-02T15:25:45.826Z,24.10
2022-09-02T15:28:12.954Z,24.00
2022-09-02T15:30:40.787Z,24.10
2022-09-02T15:33:12.844Z,24.00
2022-09-02T15:35:44.862Z,24.00
2022-09-02T15:38:11.957Z,24.10
2022-09-02T15:40:39.010Z,24.10
2022-09-02T15:43:05.924Z,24.10
2022-09-02T15:45:32.875Z,24.10
2022-09-02T15:48:00.045Z,24.10
2022-09-02T15:50:31.248Z,24.10
2022-09-02T15:52:58.288Z,24.10
2022-09-02T15:55:29.407Z,24.10
2022-09-02T15:57:57.001Z,24.10
2022-09-02T16:00:27.763Z,24.10
2022-09-02T16:02:57.274Z,24.10
2022-09-02T16:05:24.573Z,24.10
2022-09-02T16:07:54.826Z,24.00
2022-09-02T16:10:21.705Z,24.10
2022-09-02T16:12:48.807Z,24.10
2022-09-02T16:15:15.942Z,24.10
2022-09-02T16:17:42.852Z,24.10
2022-09-02T16:20:10.085Z,24.10
2022-09-02T16:22:37.446Z,24.00
2022-09-02T16:25:04.601Z,24.00
2022-09-02T16:27:50.023Z,24.00
2022-09-02T16:30:17.452Z,24.00
2022-09-02T16:32:44.779Z,24.00
2022-09-02T16:35:11.624Z,24.00
2022-09-02T16:37:38.557Z,24.00
2022-09-02T16:40:06.434Z,24.00
2022-09-02T16:42:37.420Z,24.00
2022-09-02T16:45:08.975Z,24.00
2022-09-02T16:47:35.818Z,24.00
2022-09-02T16:50:02.963Z,24.00
2022-09-02T16:52:32.229Z,24.00
2022-09-02T16:54:59.180Z,24.00
2022-09-02T16:57:26.072Z,24.00
2022-09-02T16:59:53.410Z,24.00
2022-09-02T17:02:20.999Z,24.00
2022-09-02T17:04:47.937Z,24.00
2022-09-02T17:07:15.827Z,24.00
2022-09-02T17:09:42.883Z,24.00
2022-09-02T17:12:09.754Z,24.00
2022-09-02T17:14:36.786Z,24.00
2022-09-02T17:17:03.683Z,24.00
2022-09-02T17:19:32.670Z,24.00
2022-09-02T17:21:59.595Z,24.00
2022-09-02T17:24:28.178Z,24.00
2022-09-02T17:26:56.325Z,24.00
2022-09-02T17:29:53.627Z,24.00
2022-09-02T17:32:12.915Z,24.00
2022-09-02T17:34:40.348Z,24.00
2022-09-02T17:37:08.166Z,24.00
2022-09-02T17:39:35.119Z,24.00
2022-09-02T17:42:06.445Z,24.00
2022-09-02T17:44:37.549Z,24.00
2022-09-02T17:47:06.363Z,24.00
2022-09-02T17:49:37.623Z,24.00
2022-09-02T17:52:08.119Z,24.00
2022-09-02T17:54:36.756Z,24.00
2022-09-02T17:57:26.209Z,24.00
2022-09-02T18:00:08.112Z,24.00
2022-09-02T18:02:46.990Z,24.00
2022-09-02T18:05:29.003Z,24.00
2022-09-02T18:08:09.817Z,24.00
2022-09-02T18:10:38.295Z,24.00
2022-09-02T18:13:19.586Z,24.00
2022-09-02T18:16:04.848Z,24.00
2022-09-02T18:18:31.784Z,24.00
2022-09-02T18:21:12.807Z,24.00
2022-09-02T18:24:07.156Z,24.00
2022-09-02T18:26:44.735Z,24.00
2022-09-02T18:29:12.502Z,24.00
2022-09-02T18:31:57.718Z,24.00
2022-09-02T18:34:38.514Z,24.00
2022-09-02T18:37:16.349Z,24.00
2022-09-02T18:40:17.918Z,24.00
2022-09-02T18:43:12.916Z,24.00
2022-09-02T18:45:50.993Z,24.00
2022-09-02T18:48:38.987Z,24.00
2022-09-02T18:51:15.322Z,24.00
2022-09-02T18:54:25.872Z,24.00
2022-09-02T18:57:00.800Z,24.00
2022-09-02T18:59:57.031Z,24.00
2022-09-02T19:02:35.709Z,24.00
2022-09-02T19:05:07.181Z,24.00
2022-09-02T19:07:54.562Z,24.00
2022-09-02T19:10:22.969Z,24.00
2022-09-02T19:12:50.133Z,24.00
2022-09-02T19:15:17.724Z,23.90
2022-09-02T19:17:44.639Z,23.90
2022-09-02T19:20:11.552Z,23.90
2022-09-02T19:22:44.011Z,23.90
2022-09-02T19:25:14.747Z,23.90
2022-09-02T19:27:45.059Z,23.90
2022-09-02T19:30:15.217Z,23.90
2022-09-02T19:32:46.393Z,23.90
2022-09-02T19:35:17.065Z,23.90
2022-09-02T19:37:51.133Z,23.90
2022-09-02T19:40:24.352Z,23.90
2022-09-02T19:42:54.691Z,23.90
2022-09-02T19:45:22.805Z,23.90
2022-09-02T19:48:06.633Z,23.90
2022-09-02T19:50:37.196Z,23.90
2022-09-02T19:53:04.655Z,23.90
2022-09-02T19:55:33.802Z,23.90
2022-09-02T19:58:00.915Z,23.90
2022-09-02T20:00:28.076Z,23.90
2022-09-02T20:02:56.190Z,23.90
2022-09-02T20:05:25.293Z,23.90
2022-09-02T20:07:53.854Z,23.90
2022-09-02T20:10:27.674Z,23.90
2022-09-02T20:12:55.245Z,23.90
2022-09-02T20:15:22.478Z,23.90
2022-09-02T20:17:49.857Z,23.90
2022-09-02T20:20:20.352Z,23.90
2022-09-02T20:22:48.921Z,23.90
2022-09-02T20:25:15.920Z,23.90
2022-09-02T20:28:20.246Z,23.90
2022-09-02T20:30:52.323Z,23.80
2022-09-02T20:33:22.120Z,23.90
2022-09-02T20:36:01.142Z,23.90
2022-09-02T20:38:49.418Z,23.80
2022-09-02T20:41:40.571Z,23.90
2022-09-02T20:44:17.135Z,23.80
2022-09-02T20:47:01.710Z,23.80
2022-09-02T20:49:49.277Z,23.80
2022-09-02T20:52:43.036Z,23.80
2022-09-02T20:55:50.406Z,23.80
2022-09-02T20:58:36.562Z,23.80
2022-09-02T21:01:18.364Z,23.80
2022-09-02T21:04:16.108Z,23.80
2022-09-02T21:07:05.654Z,23.80
2022-09-02T21:10:10.875Z,23.80
2022-09-02T21:12:56.303Z,23.80
2022-09-02T21:15:51.841Z,23.80
2022-09-02T21:18:36.801Z,23.80
2022-09-02T21:21:23.892Z,23.80
2022-09-02T21:24:04.511Z,23.80
2022-09-02T21:26:41.021Z,23.80
2022-09-02T21:29:17.425Z,23.80
2022-09-02T21:32:02.973Z,23.80
2022-09-02T21:35:08.487Z,23.80
2022-09-02T21:37:39.586Z,23.80
2022-09-02T21:40:37.185Z,23.80
2022-09-02T21:43:23.354Z,23.80
2022-09-02T21:46:18.408Z,23.80
2022-09-02T21:48:56.115Z,23.80
2022-09-02T21:51:33.841Z,23.80
2022-09-02T21:54:00.873Z,23.80
2022-09-02T21:57:10.439Z,23.80
2022-09-02T22:00:19.614Z,23.80
2022-09-02T22:03:16.416Z,23.80
2022-09-02T22:06:04.332Z,23.80
2022-09-02T22:08:39.811Z,23.80
2022-09-02T22:11:13.811Z,23.80
2022-09-02T22:13:42.188Z,23.80
2022-09-02T22:16:41.180Z,23.70
2022-09-02T22:19:10.105Z,23.80
2022-09-02T22:21:55.202Z,23.70
2022-09-02T22:24:31.290Z,23.80
2022-09-02T22:27:11.546Z,23.70
2022-09-02T22:30:13.592Z,23.70
2022-09-02T22:33:03.789Z,23.70
2022-09-02T22:35:41.594Z,23.70
2022-09-02T22:38:41.868Z,23.70
2022-09-02T22:41:24.739Z,23.70
2022-09-02T22:44:04.568Z,23.70
2022-09-02T22:47:23.324Z,23.70
2022-09-02T22:50:13.895Z,23.70
2022-09-02T22:52:49.453Z,23.70
2022-09-02T22:55:27.970Z,23.70
2022-09-02T22:58:21.407Z,23.70
2022-09-02T23:00:54.886Z,23.70
2022-09-02T23:03:30.633Z,23.70
2022-09-02T23:06:11.593Z,23.70
2022-09-02T23:08:42.761Z,23.70
2022-09-02T23:11:13.495Z,23.70
2022-09-02T23:13:56.564Z,23.70
2022-09-02T23:16:39.874Z,23.70
2022-09-02T23:19:22.290Z,23.70
2022-09-02T23:22:21.184Z,23.70
2022-09-02T23:25:28.284Z,23.70
2022-09-02T23:28:17.207Z,23.70
2022-09-02T23:31:18.021Z,23.70
2022-09-02T23:33:49.477Z,23.70
2022-09-02T23:36:19.633Z,23.70
2022-09-02T23:39:05.056Z,23.70
2022-09-02T23:41:32.129Z,23.70
2022-09-02T23:43:59.654Z,23.70
2022-09-02T23:46:45.751Z,23.70
2022-09-02T23:49:22.911Z,23.70
2022-09-02T23:52:20.666Z,23.70
2022-09-02T23:55:09.420Z,23.70
2022-09-02T23:57:46.168Z,23.70
